»·PEaware :: N5002T KRNM-KCRQ

N5002T :: KRNM-KCRQ

FLIGHT INFORMATION

Flight Status: Arrived
Operator: Privately registered:
United States
More flights under this callsign
Pilot: Hunter M. (19355)
Aircraft: CESSNA 172 SKYHAWK
(C172)
More flights by this aircraft type
Origin: KRNM Ramona
United States
Destination: KCRQ McClellan-Palomar
United States
More flights between these airports :: More routes between these airports
Route: +HOMLY
File this flight plan on PilotEdge
Remarks:
Altitude:
(Current/Filed)
4,000ft
Speed:
(Current/Filed)
118kts
Departed: 24-Nov-18 02:04 PM
Arrived: 24-Nov-18 02:22 PM
Distance/Time
Traveled:
19nm/0:18
Distance/Time
To Go:
Arrived

Flight Plot

Page will automatically refresh every two minutes.

Flight plan parsing failed; only flown route is shown


Map Options




Map Legend


Flown Route
Filed Route
Departure Airport
Arrival Airport
Navaid (VOR, NDB)
Fix

Horizontal Profiles

Position Reports

Time Latitude Longitude Heading Altitude Ground
Speed
24-Nov-18 13:32 33.039898 -116.910124 278 1396ft 0kts
24-Nov-18 13:33 33.039898 -116.910124 278 1396ft 0kts
24-Nov-18 13:34 33.039898 -116.910124 278 1396ft 0kts
24-Nov-18 13:35 33.039898 -116.910124 278 1396ft 0kts
24-Nov-18 13:36 33.039898 -116.910124 278 1396ft 0kts
24-Nov-18 13:37 33.039898 -116.910124 278 1396ft 0kts
24-Nov-18 13:38 33.039898 -116.910124 278 1396ft 0kts
24-Nov-18 13:39 33.039898 -116.910124 278 1396ft 0kts
24-Nov-18 13:40 33.039898 -116.910124 278 1396ft 0kts
24-Nov-18 13:41 33.039898 -116.910124 278 1396ft 0kts
24-Nov-18 13:42 33.039898 -116.910124 278 1396ft 0kts
24-Nov-18 13:43 33.039898 -116.910124 278 1396ft 0kts
24-Nov-18 13:44 33.039898 -116.910124 278 1396ft 0kts
24-Nov-18 13:45 33.039898 -116.910124 278 1396ft 0kts
24-Nov-18 13:46 33.039898 -116.910124 278 1396ft 0kts
24-Nov-18 13:47 33.039898 -116.910124 278 1396ft 0kts
24-Nov-18 13:48 33.039898 -116.910124 278 1396ft 0kts
24-Nov-18 13:49 33.039898 -116.910124 278 1396ft 0kts
24-Nov-18 13:50 33.039898 -116.910124 278 1396ft 0kts
24-Nov-18 13:51 33.039898 -116.910124 278 1396ft 0kts
24-Nov-18 13:52 33.039898 -116.910124 278 1396ft 0kts
24-Nov-18 13:53 33.039898 -116.910124 278 1396ft 0kts
24-Nov-18 13:54 33.039898 -116.910124 278 1396ft 0kts
24-Nov-18 13:55 33.039898 -116.910124 278 1396ft 0kts
24-Nov-18 13:56 33.039898 -116.910124 278 1396ft 0kts
24-Nov-18 13:57 33.039898 -116.910124 278 1396ft 0kts
24-Nov-18 13:58 33.039898 -116.910124 278 1396ft 0kts
24-Nov-18 13:59 33.039898 -116.910124 278 1396ft 0kts
24-Nov-18 14:00 33.039898 -116.910124 278 1396ft 0kts
24-Nov-18 14:01 33.039567 -116.910277 184 1396ft 7kts
24-Nov-18 14:02 33.038736 -116.908130 101 1396ft 13kts
24-Nov-18 14:03 33.038523 -116.907291 191 1396ft 0kts
24-Nov-18 14:04 33.038523 -116.907291 191 1396ft 0kts
24-Nov-18 14:05 33.038522 -116.907291 191 1396ft 0kts
24-Nov-18 14:06 33.038111 -116.907451 241 1396ft 9kts
24-Nov-18 14:07 33.040057 -116.920702 282 1550ft 83kts
24-Nov-18 14:08 33.055244 -116.942612 318 2277ft 92kts
24-Nov-18 14:09 33.070828 -116.966265 305 2998ft 87kts
24-Nov-18 14:10 33.083888 -116.989710 306 3675ft 82kts
24-Nov-18 14:11 33.102310 -116.992136 13 4326ft 71kts
24-Nov-18 14:12 33.125664 -116.982072 14 3923ft 102kts
24-Nov-18 14:13 33.145400 -116.989493 279 3511ft 88kts
24-Nov-18 14:14 33.151266 -117.015849 290 3507ft 79kts
24-Nov-18 14:15 33.158120 -117.041187 289 3513ft 81kts
24-Nov-18 14:16 33.163828 -117.067353 257 3522ft 83kts
24-Nov-18 14:17 33.155958 -117.093569 264 3469ft 82kts
24-Nov-18 14:18 33.153861 -117.120047 266 3513ft 81kts
24-Nov-18 14:19 33.150302 -117.146717 260 3506ft 79kts
24-Nov-18 14:20 33.144456 -117.170661 263 2577ft 77kts
24-Nov-18 14:21 33.141823 -117.196332 262 1605ft 67kts
24-Nov-18 14:22 33.137715 -117.218966 256 1311ft 69kts
24-Nov-18 14:23 33.134635 -117.241235 259 940ft 64kts
24-Nov-18 14:24 33.131274 -117.261011 257 584ft 58kts
24-Nov-18 14:25 33.128596 -117.277973 256 334ft 11kts
24-Nov-18 14:26 33.127497 -117.280515 210 334ft 0kts
24-Nov-18 14:27 33.127497 -117.280516 211 334ft 0kts
24-Nov-18 14:28 33.127496 -117.280516 211 334ft 0kts
24-Nov-18 14:29 33.126186 -117.281653 257 334ft 15kts
24-Nov-18 14:30 33.125948 -117.282336 261 334ft 0kts
24-Nov-18 14:31 33.125948 -117.282336 261 334ft 0kts

Navigation Log

Ident Type
Flight plan parsing failed, navigation log unavailable